Time;durP1;ratioP1;P1;durP2;ratioP2;P2;SDS_P1;SDS_P2;PMS_P1;PMS_P2;Temp;Humidity;BMP_temperature;BMP_pressure;BME280_temperature;BME280_humidity;BME280_pressure;Samples;Min_cycle;Max_cycle;Signal;HPM_P1;HPM_P2
2022/11/03 00:01:40;;;;;;;2.93;1.67;;;;;;;-144.22;100.00;60274.75;6251573;28;20687;-63
2022/11/03 00:04:43;;;;;;;5.57;1.73;;;;;;;-144.22;100.00;60274.75;6244191;28;20230;-63
2022/11/03 00:07:45;;;;;;;4.80;1.60;;;;;;;-144.22;100.00;60274.75;6248564;28;20582;-63
2022/11/03 00:10:47;;;;;;;2.40;1.33;;;;;;;-144.22;100.00;60274.75;6248523;28;20269;-62
2022/11/03 00:13:49;;;;;;;3.83;1.77;;;;;;;-144.22;100.00;60274.75;6245818;28;20629;-63
2022/11/03 00:16:51;;;;;;;5.00;1.60;;;;;;;-144.22;100.00;60274.75;6246280;28;20255;-63
2022/11/03 00:19:53;;;;;;;8.40;2.13;;;;;;;-144.22;100.00;60274.75;6236599;28;20255;-62
2022/11/03 00:22:55;;;;;;;6.80;2.30;;;;;;;-144.22;100.00;60274.75;6254870;28;20510;-62
2022/11/03 00:26:12;;;;;;;2.37;1.70;;;;;;;-144.22;100.00;60274.75;6250833;28;20333;-62
2022/11/03 00:29:14;;;;;;;4.20;1.70;;;;;;;-144.22;100.00;60274.75;6244527;28;20744;-62
2022/11/03 00:32:16;;;;;;;4.37;1.50;;;;;;;-144.22;100.00;60274.75;6249500;28;20224;-62
2022/11/03 00:35:18;;;;;;;3.73;1.50;;;;;;;-144.22;100.00;60274.75;6224104;28;20605;-63
2022/11/03 00:38:20;;;;;;;3.70;1.70;;;;;;;-144.22;100.00;60274.75;6245434;28;20233;-62
2022/11/03 00:41:24;;;;;;;3.83;1.57;;;;;;;-144.22;100.00;60274.75;6244130;28;20235;-62
2022/11/03 00:44:26;;;;;;;3.27;1.53;;;;;;;-144.22;100.00;60274.75;6234199;28;20302;-63
2022/11/03 00:47:28;;;;;;;3.33;1.60;;;;;;;-144.22;100.00;60274.75;6248121;28;20886;-64
2022/11/03 00:50:32;;;;;;;5.70;2.43;;;;;;;-144.22;100.00;60274.75;6237270;28;20238;-62
2022/11/03 00:53:37;;;;;;;3.30;1.80;;;;;;;-144.22;100.00;60274.75;6240236;28;20269;-62
2022/11/03 00:56:41;;;;;;;3.60;1.60;;;;;;;-144.22;100.00;60274.75;6250564;28;20237;-63
2022/11/03 00:59:43;;;;;;;1.83;1.40;;;;;;;-144.22;100.00;60274.75;6227445;28;20247;-62
2022/11/03 01:02:45;;;;;;;4.77;1.70;;;;;;;-144.22;100.00;60274.75;6254850;28;20261;-62
2022/11/03 01:09:07;;;;;;;4.00;1.43;;;;;;;-144.22;100.00;60274.75;6240751;28;20230;-63
2022/11/03 01:12:13;;;;;;;5.27;1.97;;;;;;;-144.22;100.00;60274.75;6246771;28;20230;-63
2022/11/03 01:15:15;;;;;;;2.83;1.90;;;;;;;-144.22;100.00;60274.75;6254720;28;20228;-62
2022/11/03 01:18:17;;;;;;;2.97;1.73;;;;;;;-144.22;100.00;60274.75;6248841;28;20308;-63
2022/11/03 01:21:19;;;;;;;3.67;2.00;;;;;;;-144.22;100.00;60274.75;6243712;28;20691;-63
2022/11/03 01:24:21;;;;;;;4.27;1.50;;;;;;;-144.22;100.00;60274.75;6244496;28;20238;-62
2022/11/03 01:27:23;;;;;;;5.63;1.80;;;;;;;-144.22;100.00;60274.75;6242314;28;20822;-62
2022/11/03 01:30:25;;;;;;;3.83;1.50;;;;;;;-144.22;100.00;60274.75;6250839;28;20720;-62
2022/11/03 01:33:28;;;;;;;3.57;1.87;;;;;;;-144.22;100.00;60274.75;6248177;28;20244;-62
2022/11/03 01:36:30;;;;;;;9.50;1.77;;;;;;;-144.22;100.00;60274.75;6234485;28;20235;-62
2022/11/03 01:39:33;;;;;;;3.60;1.70;;;;;;;-144.22;100.00;60274.75;6238929;28;21000;-63
2022/11/03 01:42:35;;;;;;;1.57;1.33;;;;;;;-144.22;100.00;60274.75;6241857;28;20361;-62
2022/11/03 01:45:37;;;;;;;3.83;1.80;;;;;;;-144.22;100.00;60274.75;6243384;28;20236;-62
2022/11/03 01:48:44;;;;;;;2.50;1.60;;;;;;;-144.22;100.00;60274.75;6249554;28;20234;-62
2022/11/03 01:51:53;;;;;;;5.73;1.60;;;;;;;-144.22;100.00;60274.75;6240963;28;20238;-62
2022/11/03 01:55:09;;;;;;;2.80;1.47;;;;;;;-144.22;100.00;60274.75;6246765;28;20590;-62
2022/11/03 01:58:22;;;;;;;5.47;1.87;;;;;;;-144.22;100.00;60274.75;6235282;28;20228;-62
2022/11/03 02:01:25;;;;;;;4.60;1.80;;;;;;;-144.22;100.00;60274.75;6243317;28;20610;-62
2022/11/03 02:04:33;;;;;;;3.73;1.63;;;;;;;-144.22;100.00;60274.75;6226484;28;20709;-62
2022/11/03 02:08:01;;;;;;;3.13;1.47;;;;;;;-144.22;100.00;60274.75;6249007;28;20234;-63
2022/11/03 02:12:05;;;;;;;2.00;1.40;;;;;;;-144.22;100.00;60274.75;6228323;28;20232;-62
2022/11/03 02:14:25;;;;;;;3.97;1.40;;;;;;;-144.22;100.00;60274.75;6236443;28;20245;-62
2022/11/03 02:17:31;;;;;;;3.50;1.27;;;;;;;-144.22;100.00;60274.75;6223587;28;20236;-63
2022/11/03 02:20:34;;;;;;;4.73;1.50;;;;;;;-144.22;100.00;60274.75;6227148;28;20315;-62
2022/11/03 02:23:56;;;;;;;3.57;1.57;;;;;;;-144.22;100.00;60274.75;6257630;28;20301;-63
2022/11/03 02:26:57;;;;;;;4.67;1.70;;;;;;;-144.22;100.00;60274.75;6245356;28;20269;-62
2022/11/03 02:30:00;;;;;;;4.53;1.50;;;;;;;-144.22;100.00;60274.75;6234037;28;20363;-62
2022/11/03 02:33:23;;;;;;;3.87;1.63;;;;;;;-144.22;100.00;60274.75;6242534;28;20799;-62
2022/11/03 02:36:28;;;;;;;2.60;1.33;;;;;;;-144.22;100.00;60274.75;6252168;28;20301;-62
2022/11/03 02:39:40;;;;;;;3.37;1.40;;;;;;;-144.22;100.00;60274.75;6242025;28;20235;-63
2022/11/03 02:42:46;;;;;;;6.40;1.63;;;;;;;-144.22;100.00;60274.75;6243012;28;20227;-63
2022/11/03 02:45:51;;;;;;;4.13;1.47;;;;;;;-144.22;100.00;60274.75;6248669;28;20258;-62
2022/11/03 02:48:53;;;;;;;2.47;1.50;;;;;;;-144.22;100.00;60274.75;6239820;28;20635;-63
2022/11/03 02:52:00;;;;;;;4.73;1.90;;;;;;;-144.22;100.00;60274.75;6244246;28;20312;-62
2022/11/03 02:55:19;;;;;;;3.27;1.63;;;;;;;-144.22;100.00;60274.75;6243837;28;20250;-62
2022/11/03 02:59:00;;;;;;;2.40;1.63;;;;;;;-144.22;100.00;60274.75;6248723;28;20715;-62
2022/11/03 03:02:07;;;;;;;5.17;1.77;;;;;;;-144.22;100.00;60274.75;6162201;28;20329;-63
2022/11/03 03:05:12;;;;;;;2.60;1.77;;;;;;;-144.22;100.00;60274.75;6168253;28;20241;-62
2022/11/03 03:08:15;;;;;;;3.40;1.83;;;;;;;-144.22;100.00;60274.75;6172369;28;20717;-62
2022/11/03 03:11:35;;;;;;;4.40;2.00;;;;;;;-144.22;100.00;60274.75;6175977;28;20230;-64
2022/11/03 03:14:43;;;;;;;9.47;2.20;;;;;;;-144.22;100.00;60274.75;6170535;28;20238;-63
2022/11/03 03:18:07;;;;;;;4.93;2.00;;;;;;;-144.22;100.00;60274.75;6169966;28;20329;-62
2022/11/03 03:21:25;;;;;;;3.40;1.80;;;;;;;-144.22;100.00;60274.75;6171442;28;20298;-62
2022/11/03 03:24:38;;;;;;;4.70;1.80;;;;;;;-144.22;100.00;60274.75;6158766;28;20233;-63
2022/11/03 03:27:46;;;;;;;4.40;1.80;;;;;;;-144.22;100.00;60274.75;6174771;28;20236;-62
2022/11/03 03:30:50;;;;;;;3.23;1.97;;;;;;;-144.22;100.00;60274.75;6172533;28;20237;-62
2022/11/03 03:33:57;;;;;;;3.90;2.00;;;;;;;-144.22;100.00;60274.75;6171190;28;20228;-62
2022/11/03 03:37:14;;;;;;;7.20;2.00;;;;;;;-144.22;100.00;60274.75;6171391;28;20247;-62
2022/11/03 03:40:24;;;;;;;6.30;2.20;;;;;;;-144.22;100.00;60274.75;6241138;28;20245;-63
2022/11/03 03:43:30;;;;;;;3.83;2.03;;;;;;;-144.22;100.00;60274.75;6244826;28;20236;-64
2022/11/03 03:46:57;;;;;;;4.17;1.90;;;;;;;-144.22;100.00;60274.75;6249413;28;20287;-63
2022/11/03 03:50:00;;;;;;;3.37;1.80;;;;;;;-144.22;100.00;60274.75;6220719;28;20234;-62
2022/11/03 03:53:06;;;;;;;4.53;2.10;;;;;;;-144.22;100.00;60274.75;6239205;28;20313;-62
2022/11/03 03:56:08;;;;;;;3.57;1.80;;;;;;;-144.22;100.00;60274.75;6240022;28;20747;-63
2022/11/03 03:59:10;;;;;;;3.67;1.93;;;;;;;-144.22;100.00;60274.75;6228421;28;20326;-63
2022/11/03 04:02:13;;;;;;;2.10;1.60;;;;;;;-144.22;100.00;60274.75;6246033;28;20227;-62
2022/11/03 04:05:15;;;;;;;4.47;1.83;;;;;;;-144.22;100.00;60274.75;6231236;28;20233;-63
2022/11/03 04:08:17;;;;;;;4.17;1.97;;;;;;;-144.22;100.00;60274.75;6244185;28;20678;-62
2022/11/03 04:24:49;;;;;;;2.90;2.03;;;;;;;-144.22;100.00;60274.75;6242284;28;20242;-63
2022/11/03 04:27:51;;;;;;;4.97;1.73;;;;;;;-144.22;100.00;60274.75;6218856;28;20230;-63
2022/11/03 04:30:58;;;;;;;4.37;1.90;;;;;;;-144.22;100.00;60274.75;6241545;28;20231;-62
2022/11/03 04:34:03;;;;;;;4.67;1.90;;;;;;;-144.22;100.00;60274.75;6239014;28;20235;-64
2022/11/03 04:37:11;;;;;;;3.57;1.60;;;;;;;-144.22;100.00;60274.75;6230966;28;20222;-62
2022/11/03 04:40:16;;;;;;;4.23;1.67;;;;;;;-144.22;100.00;60274.75;6240941;28;20234;-63
2022/11/03 04:43:21;;;;;;;2.20;1.73;;;;;;;-144.22;100.00;60274.75;6242049;28;20237;-62
2022/11/03 04:46:28;;;;;;;2.03;1.80;;;;;;;-144.22;100.00;60274.75;6249553;28;20227;-63
2022/11/03 04:49:30;;;;;;;4.50;2.00;;;;;;;-144.22;100.00;60274.75;6247408;28;20239;-63
2022/11/03 04:52:32;;;;;;;4.67;2.10;;;;;;;-144.22;100.00;60274.75;6248251;28;20237;-63
2022/11/03 04:55:34;;;;;;;3.67;1.73;;;;;;;-144.22;100.00;60274.75;6246949;28;20238;-63
2022/11/03 04:58:36;;;;;;;2.30;1.60;;;;;;;-144.22;100.00;60274.75;6253448;28;20285;-64
2022/11/03 05:01:38;;;;;;;3.03;1.87;;;;;;;-144.22;100.00;60274.75;6245855;28;20230;-63
2022/11/03 05:04:41;;;;;;;4.40;1.87;;;;;;;-144.22;100.00;60274.75;6237247;28;20262;-62
2022/11/03 05:07:46;;;;;;;3.83;1.43;;;;;;;-144.22;100.00;60274.75;6244378;28;20714;-62
2022/11/03 05:10:49;;;;;;;5.63;2.03;;;;;;;-144.22;100.00;60274.75;6245020;28;20232;-62
2022/11/03 05:13:52;;;;;;;2.77;1.60;;;;;;;-144.22;100.00;60274.75;6246746;28;20393;-62
2022/11/03 05:16:55;;;;;;;5.67;2.00;;;;;;;-144.22;100.00;60274.75;6241221;28;20762;-63
2022/11/03 05:20:02;;;;;;;3.43;1.43;;;;;;;-144.22;100.00;60274.75;6247460;28;20258;-62
2022/11/03 05:23:04;;;;;;;2.53;1.90;;;;;;;-144.22;100.00;60274.75;6251231;28;20215;-63
2022/11/03 05:26:19;;;;;;;6.47;2.50;;;;;;;-144.22;100.00;60274.75;6243031;28;20223;-63
2022/11/03 05:29:31;;;;;;;2.13;1.93;;;;;;;-144.22;100.00;60274.75;6245817;28;20227;-63
2022/11/03 05:32:33;;;;;;;2.47;1.70;;;;;;;-144.22;100.00;60274.75;6243115;28;20228;-63
2022/11/03 05:35:35;;;;;;;2.77;2.10;;;;;;;-144.22;100.00;60274.75;6231705;28;20229;-63
2022/11/03 05:38:37;;;;;;;3.10;2.00;;;;;;;-144.22;100.00;60274.75;6227712;28;20224;-63
2022/11/03 05:41:39;;;;;;;4.20;2.00;;;;;;;-144.22;100.00;60274.75;6248838;28;20600;-63
2022/11/03 05:44:41;;;;;;;3.43;1.70;;;;;;;-144.22;100.00;60274.75;6243365;28;20718;-63
2022/11/03 05:47:44;;;;;;;4.03;1.90;;;;;;;-144.22;100.00;60274.75;6227708;28;20227;-63
2022/11/03 05:50:46;;;;;;;3.37;1.90;;;;;;;-144.22;100.00;60274.75;6248517;28;20237;-63
2022/11/03 05:53:54;;;;;;;4.03;1.73;;;;;;;-144.22;100.00;60274.75;6238459;28;20226;-62
2022/11/03 05:56:57;;;;;;;2.07;1.77;;;;;;;-144.22;100.00;60274.75;6247631;28;20765;-63
2022/11/03 05:59:59;;;;;;;3.03;1.70;;;;;;;-144.22;100.00;60274.75;6231085;28;20317;-63
2022/11/03 06:03:02;;;;;;;2.60;1.53;;;;;;;-144.22;100.00;60274.75;6249602;28;20311;-66
2022/11/03 06:06:18;;;;;;;2.87;1.80;;;;;;;-144.22;100.00;60274.75;6253158;28;20226;-63
2022/11/03 06:09:24;;;;;;;4.07;1.90;;;;;;;-144.22;100.00;60274.75;6230379;28;20693;-63
2022/11/03 06:12:29;;;;;;;5.37;2.10;;;;;;;-144.22;100.00;60274.75;6245213;28;20224;-63
2022/11/03 06:15:34;;;;;;;2.90;1.97;;;;;;;-144.22;100.00;60274.75;6238333;28;20236;-63
2022/11/03 06:18:37;;;;;;;5.27;2.13;;;;;;;-144.22;100.00;60274.75;6246222;28;20770;-63
2022/11/03 06:21:39;;;;;;;3.27;2.03;;;;;;;-144.22;100.00;60274.75;6250373;28;20258;-63
2022/11/03 06:24:46;;;;;;;4.37;2.07;;;;;;;-144.22;100.00;60274.75;6245616;28;20231;-63
2022/11/03 06:27:48;;;;;;;3.23;2.00;;;;;;;-144.22;100.00;60274.75;6244804;28;20234;-63
2022/11/03 06:30:50;;;;;;;3.63;1.77;;;;;;;-144.22;100.00;60274.75;6243380;28;20223;-63
2022/11/03 06:33:56;;;;;;;2.93;2.07;;;;;;;-144.22;100.00;60274.75;6238697;28;20355;-63
2022/11/03 06:37:08;;;;;;;6.23;2.37;;;;;;;-144.22;100.00;60274.75;6216027;28;20232;-62
2022/11/03 06:40:14;;;;;;;1.87;1.63;;;;;;;-144.22;100.00;60274.75;6244692;28;20234;-63
2022/11/03 06:43:23;;;;;;;4.80;2.23;;;;;;;-144.22;100.00;60274.75;6240420;28;20228;-63
2022/11/03 06:46:26;;;;;;;2.97;1.83;;;;;;;-144.22;100.00;60274.75;6249818;28;20232;-63
2022/11/03 06:49:34;;;;;;;3.50;1.83;;;;;;;-144.22;100.00;60274.75;6244627;28;20235;-63
2022/11/03 06:52:42;;;;;;;3.40;1.90;;;;;;;-144.22;100.00;60274.75;6242453;28;20236;-63
2022/11/03 06:55:45;;;;;;;4.53;2.07;;;;;;;-144.22;100.00;60274.75;6245499;28;20243;-63
2022/11/03 06:58:50;;;;;;;4.37;2.03;;;;;;;-144.22;100.00;60274.75;6247096;28;20603;-62
2022/11/03 07:01:54;;;;;;;5.00;2.40;;;;;;;-144.22;100.00;60274.75;6217085;28;20730;-64
2022/11/03 07:04:56;;;;;;;4.93;2.23;;;;;;;-144.22;100.00;60274.75;6243908;28;20233;-62
2022/11/03 07:08:02;;;;;;;4.73;2.30;;;;;;;-144.22;100.00;60274.75;6244789;28;20334;-62
2022/11/03 07:11:13;;;;;;;4.73;2.20;;;;;;;-144.22;100.00;60274.75;6250028;28;20234;-63
2022/11/03 07:14:21;;;;;;;4.73;2.50;;;;;;;-144.22;100.00;60274.75;6244379;28;20365;-63
2022/11/03 07:17:23;;;;;;;6.03;2.20;;;;;;;-144.22;100.00;60274.75;6243731;28;20229;-62
2022/11/03 07:20:26;;;;;;;4.13;2.10;;;;;;;-144.22;100.00;60274.75;6223178;28;20370;-63
2022/11/03 07:23:29;;;;;;;5.03;2.13;;;;;;;-144.22;100.00;60274.75;6238751;28;20630;-64
2022/11/03 07:26:33;;;;;;;7.80;2.63;;;;;;;-144.22;100.00;60274.75;6237151;28;20271;-62
2022/11/03 07:29:35;;;;;;;6.47;2.50;;;;;;;-144.22;100.00;60274.75;6245170;28;20315;-64
2022/11/03 07:32:38;;;;;;;5.10;2.60;;;;;;;-144.22;100.00;60274.75;6247088;28;20614;-62
2022/11/03 07:35:43;;;;;;;7.40;2.77;;;;;;;-144.22;100.00;60274.75;6245820;28;20231;-63
2022/11/03 07:39:11;;;;;;;3.50;2.37;;;;;;;-144.22;100.00;60274.75;6230335;28;20607;-64
2022/11/03 07:42:22;;;;;;;7.33;3.00;;;;;;;-144.22;100.00;60274.75;6242929;28;20230;-65
2022/11/03 07:45:35;;;;;;;5.57;2.70;;;;;;;-144.22;100.00;60274.75;6238521;28;20233;-63
2022/11/03 07:48:45;;;;;;;4.50;2.43;;;;;;;-144.22;100.00;60274.75;6232448;28;20245;-63
2022/11/03 07:51:49;;;;;;;5.10;2.73;;;;;;;-144.22;100.00;60274.75;6240684;28;20322;-63
2022/11/03 07:54:56;;;;;;;6.10;2.97;;;;;;;-144.22;100.00;60274.75;6243894;28;20313;-63
2022/11/03 07:57:58;;;;;;;6.20;2.90;;;;;;;-144.22;100.00;60274.75;6242193;28;20233;-64
2022/11/03 08:01:06;;;;;;;8.60;2.80;;;;;;;-144.22;100.00;60274.75;6234485;28;20605;-62
2022/11/03 08:04:18;;;;;;;3.77;2.63;;;;;;;-144.22;100.00;60274.75;6244488;28;20235;-63
2022/11/03 08:07:21;;;;;;;6.67;2.70;;;;;;;-144.22;100.00;60274.75;6241643;28;20242;-63
2022/11/03 08:10:23;;;;;;;4.63;2.50;;;;;;;-144.22;100.00;60274.75;6242942;28;20318;-62
2022/11/03 08:13:25;;;;;;;5.80;2.53;;;;;;;-144.22;100.00;60274.75;6237724;28;20235;-62
2022/11/03 08:16:27;;;;;;;5.43;2.77;;;;;;;-144.22;100.00;60274.75;6243731;28;20247;-64
2022/11/03 08:19:29;;;;;;;5.50;2.57;;;;;;;-144.22;100.00;60274.75;6238781;28;20254;-63
2022/11/03 08:22:31;;;;;;;3.97;2.20;;;;;;;-144.22;100.00;60274.75;6244823;28;20560;-63
2022/11/03 08:25:33;;;;;;;6.30;2.60;;;;;;;-144.22;100.00;60274.75;6249460;28;20241;-63
2022/11/03 08:28:36;;;;;;;2.67;2.00;;;;;;;-144.22;100.00;60274.75;6246077;28;20329;-63
2022/11/03 08:31:38;;;;;;;3.53;2.00;;;;;;;-144.22;100.00;60274.75;6229600;28;20265;-63
2022/11/03 08:34:40;;;;;;;6.33;2.67;;;;;;;-144.22;100.00;60274.75;6248921;28;20230;-63
2022/11/03 08:37:42;;;;;;;5.10;2.40;;;;;;;-144.22;100.00;60274.75;6244347;28;20723;-63
2022/11/03 08:40:44;;;;;;;5.03;2.90;;;;;;;-144.22;100.00;60274.75;6243990;28;20263;-63
2022/11/03 08:43:46;;;;;;;6.40;2.93;;;;;;;-144.22;100.00;60274.75;6242239;28;20361;-63
2022/11/03 08:46:48;;;;;;;8.57;2.80;;;;;;;-144.22;100.00;60274.75;6235083;28;20742;-63
2022/11/03 08:49:50;;;;;;;4.57;2.57;;;;;;;-144.22;100.00;60274.75;6231567;28;20714;-63
2022/11/03 08:52:52;;;;;;;5.30;2.40;;;;;;;-144.22;100.00;60274.75;6229350;28;20254;-62
2022/11/03 08:55:55;;;;;;;6.07;2.60;;;;;;;-144.22;100.00;60274.75;6246618;28;20231;-63
2022/11/03 08:58:58;;;;;;;6.03;2.77;;;;;;;-144.22;100.00;60274.75;6246750;28;20242;-64
2022/11/03 09:02:00;;;;;;;5.43;2.37;;;;;;;-144.22;100.00;60274.75;6247043;28;20381;-63
2022/11/03 09:05:04;;;;;;;4.57;2.33;;;;;;;-144.22;100.00;60274.75;6244925;28;20227;-63
2022/11/03 09:08:06;;;;;;;5.23;2.30;;;;;;;-144.22;100.00;60274.75;6241464;28;20742;-63
2022/11/03 09:11:28;;;;;;;4.27;2.37;;;;;;;-144.22;100.00;60274.75;6242676;28;20235;-63
2022/11/03 09:14:30;;;;;;;4.43;2.07;;;;;;;-144.22;100.00;60274.75;6245729;28;20711;-63
2022/11/03 09:17:32;;;;;;;7.73;2.43;;;;;;;-144.22;100.00;60274.75;6243047;28;20304;-63
2022/11/03 09:20:35;;;;;;;4.83;2.10;;;;;;;-144.22;100.00;60274.75;6245987;28;20325;-63
2022/11/03 09:23:37;;;;;;;6.00;2.60;;;;;;;-144.22;100.00;60274.75;6242752;28;20227;-64
2022/11/03 09:26:39;;;;;;;4.37;1.90;;;;;;;-144.22;100.00;60274.75;6239121;28;20232;-64
2022/11/03 09:29:41;;;;;;;5.53;2.23;;;;;;;-144.22;100.00;60274.75;6233218;28;20361;-64
2022/11/03 09:33:03;;;;;;;4.03;1.87;;;;;;;-144.22;100.00;60274.75;6243649;28;20236;-64
2022/11/03 09:36:05;;;;;;;4.30;1.80;;;;;;;-144.22;100.00;60274.75;6242552;28;20226;-63
2022/11/03 09:39:08;;;;;;;6.17;2.17;;;;;;;-144.22;100.00;60274.75;6240878;28;20223;-64
2022/11/03 09:42:14;;;;;;;4.83;2.17;;;;;;;-144.22;100.00;60274.75;6242260;28;20233;-64
2022/11/03 09:45:16;;;;;;;5.00;2.17;;;;;;;-144.22;100.00;60274.75;6225162;28;20683;-64
2022/11/03 09:48:18;;;;;;;6.33;2.00;;;;;;;-144.22;100.00;60274.75;6244747;28;20282;-64
2022/11/03 09:51:23;;;;;;;3.90;1.93;;;;;;;-144.22;100.00;60274.75;6231554;28;20235;-63
2022/11/03 09:54:25;;;;;;;2.83;1.50;;;;;;;-144.22;100.00;60274.75;6224603;28;20231;-63
2022/11/03 09:57:28;;;;;;;2.73;2.00;;;;;;;-144.22;100.00;60274.75;6233882;28;20225;-65
2022/11/03 10:00:30;;;;;;;4.87;1.90;;;;;;;-144.22;100.00;60274.75;6248184;28;20788;-64
2022/11/03 10:03:32;;;;;;;5.17;2.47;;;;;;;-144.22;100.00;60274.75;6242874;28;20235;-63
2022/11/03 10:06:34;;;;;;;6.87;1.87;;;;;;;-144.22;100.00;60274.75;6245257;28;20666;-64
2022/11/03 10:09:41;;;;;;;2.93;1.97;;;;;;;-144.22;100.00;60274.75;6233033;28;20360;-63
2022/11/03 10:12:45;;;;;;;4.70;2.07;;;;;;;-144.22;100.00;60274.75;6226948;28;20633;-65
2022/11/03 10:15:47;;;;;;;6.43;2.07;;;;;;;-144.22;100.00;60274.75;6246101;28;20228;-63
2022/11/03 10:18:50;;;;;;;5.17;1.97;;;;;;;-144.22;100.00;60274.75;6241033;28;20656;-64
2022/11/03 10:21:53;;;;;;;4.03;1.83;;;;;;;-144.22;100.00;60274.75;6231884;28;20235;-63
2022/11/03 10:25:25;;;;;;;4.80;1.77;;;;;;;-144.22;100.00;60274.75;6239938;28;20330;-64
2022/11/03 10:28:27;;;;;;;3.87;1.80;;;;;;;-144.22;100.00;60274.75;6216736;28;20776;-64
2022/11/03 10:31:38;;;;;;;7.57;2.53;;;;;;;-144.22;100.00;60274.75;6234680;28;20230;-63
2022/11/03 10:34:40;;;;;;;4.67;2.10;;;;;;;-144.22;100.00;60274.75;6244994;28;20280;-64
2022/11/03 10:37:42;;;;;;;4.23;1.93;;;;;;;-144.22;100.00;60274.75;6241868;28;20395;-64
2022/11/03 10:40:44;;;;;;;3.10;1.80;;;;;;;-144.22;100.00;60274.75;6243698;28;20710;-64
2022/11/03 10:44:04;;;;;;;3.67;1.93;;;;;;;-144.22;100.00;60274.75;6226491;28;20235;-64
2022/11/03 10:47:24;;;;;;;3.70;1.80;;;;;;;-144.22;100.00;60274.75;6244037;28;20579;-64
2022/11/03 10:50:27;;;;;;;2.93;1.70;;;;;;;-144.22;100.00;60274.75;6239210;28;20224;-63
2022/11/03 10:53:30;;;;;;;6.03;1.63;;;;;;;-144.22;100.00;60274.75;6245422;28;20223;-64
2022/11/03 10:56:32;;;;;;;4.83;1.70;;;;;;;-144.22;100.00;60274.75;6244446;28;20230;-64
2022/11/03 10:59:37;;;;;;;6.53;1.67;;;;;;;-144.22;100.00;60274.75;6244098;28;20231;-64
2022/11/03 11:02:41;;;;;;;5.77;2.20;;;;;;;-144.22;100.00;60274.75;6244021;28;20768;-63
2022/11/03 11:05:45;;;;;;;3.97;1.63;;;;;;;-144.22;100.00;60274.75;6231452;28;20324;-65
2022/11/03 11:08:49;;;;;;;3.87;1.80;;;;;;;-144.22;100.00;60274.75;6230175;28;20317;-64
2022/11/03 11:12:03;;;;;;;4.93;2.00;;;;;;;-144.22;100.00;60274.75;6248368;28;20227;-65
2022/11/03 11:15:38;;;;;;;6.00;1.83;;;;;;;-144.22;100.00;60274.75;6223377;28;20723;-64
2022/11/03 11:18:40;;;;;;;4.30;2.07;;;;;;;-144.22;100.00;60274.75;6243769;28;20330;-64
2022/11/03 11:21:42;;;;;;;3.47;2.00;;;;;;;-144.22;100.00;60274.75;6242322;28;20243;-64
2022/11/03 11:24:44;;;;;;;3.83;1.93;;;;;;;-144.22;100.00;60274.75;6242021;28;20218;-64
2022/11/03 11:27:49;;;;;;;4.70;2.03;;;;;;;-144.22;100.00;60274.75;6228079;28;20699;-64
2022/11/03 11:30:58;;;;;;;4.93;1.93;;;;;;;-144.22;100.00;60274.75;6240648;28;20313;-64
2022/11/03 11:34:09;;;;;;;4.77;2.30;;;;;;;-144.22;100.00;60274.75;6238745;28;21116;-63
2022/11/03 11:37:11;;;;;;;8.10;2.70;;;;;;;-144.22;100.00;60274.75;6232163;28;20306;-65
2022/11/03 11:40:44;;;;;;;5.27;2.73;;;;;;;-144.22;100.00;60274.75;6226586;28;20227;-65
2022/11/03 11:43:46;;;;;;;8.63;2.87;;;;;;;-144.22;100.00;60274.75;6243030;28;20323;-65
2022/11/03 11:46:48;;;;;;;8.33;2.93;;;;;;;-144.22;100.00;60274.75;6233729;28;20235;-63
2022/11/03 11:50:19;;;;;;;3.30;2.10;;;;;;;-144.22;100.00;60274.75;6246028;28;20226;-65
2022/11/03 11:53:23;;;;;;;4.63;2.40;;;;;;;-144.22;100.00;60274.75;6238193;28;20700;-64
2022/11/03 11:56:32;;;;;;;6.57;2.10;;;;;;;-144.22;100.00;60274.75;6225940;28;20234;-64
2022/11/03 11:59:35;;;;;;;4.20;2.13;;;;;;;-144.22;100.00;60274.75;6241578;28;20235;-63
2022/11/03 12:02:37;;;;;;;2.90;2.30;;;;;;;-144.22;100.00;60274.75;6245162;28;20230;-65
2022/11/03 12:05:39;;;;;;;5.93;2.40;;;;;;;-144.22;100.00;60274.75;6244916;28;20719;-65
2022/11/03 12:08:42;;;;;;;4.97;1.77;;;;;;;-144.22;100.00;60274.75;6243257;28;20254;-64
2022/11/03 12:11:46;;;;;;;4.97;2.20;;;;;;;-144.22;100.00;60274.75;6240506;28;20594;-65
2022/11/03 12:14:51;;;;;;;5.93;2.43;;;;;;;-144.22;100.00;60274.75;6247106;28;20242;-65
2022/11/03 12:17:53;;;;;;;7.07;2.80;;;;;;;-144.22;100.00;60274.75;6239231;28;20465;-65
2022/11/03 12:20:55;;;;;;;4.30;2.17;;;;;;;-144.22;100.00;60274.75;6230536;28;20243;-64
2022/11/03 12:23:57;;;;;;;3.47;1.87;;;;;;;-144.22;100.00;60274.75;6240548;28;20239;-65
2022/11/03 12:26:59;;;;;;;3.27;1.90;;;;;;;-144.22;100.00;60274.75;6239949;28;20219;-65
2022/11/03 12:30:05;;;;;;;4.33;2.30;;;;;;;-144.22;100.00;60274.75;6246167;28;20227;-64
2022/11/03 12:33:09;;;;;;;5.47;2.63;;;;;;;-144.22;100.00;60274.75;6220116;28;20212;-65
2022/11/03 12:36:11;;;;;;;3.67;2.37;;;;;;;-144.22;100.00;60274.75;6236180;28;20215;-65
2022/11/03 12:39:13;;;;;;;3.07;2.73;;;;;;;-144.22;100.00;60274.75;6246518;28;20278;-64
2022/11/03 12:42:16;;;;;;;3.63;2.53;;;;;;;-144.22;100.00;60274.75;6244591;28;20242;-64
2022/11/03 12:45:18;;;;;;;3.90;2.40;;;;;;;-144.22;100.00;60274.75;6247797;28;20257;-64
2022/11/03 12:48:20;;;;;;;4.70;2.40;;;;;;;-144.22;100.00;60274.75;6245232;28;20569;-64
2022/11/03 12:51:23;;;;;;;5.20;2.67;;;;;;;-144.22;100.00;60274.75;6240607;28;20597;-64
2022/11/03 12:54:26;;;;;;;5.93;2.70;;;;;;;-144.22;100.00;60274.75;6244944;28;20228;-64
2022/11/03 12:57:28;;;;;;;7.50;2.70;;;;;;;-144.22;100.00;60274.75;6241376;28;20622;-65
2022/11/03 13:00:30;;;;;;;6.00;2.50;;;;;;;-144.22;100.00;60274.75;6219636;28;20258;-64
2022/11/03 13:03:33;;;;;;;5.10;2.67;;;;;;;-144.22;100.00;60274.75;6239294;28;20230;-64
2022/11/03 13:06:35;;;;;;;4.70;2.40;;;;;;;18.38;59.14;98067.69;6241995;28;20259;-64
2022/11/03 13:09:38;;;;;;;6.73;2.87;;;;;;;24.53;33.74;97614.31;6241027;28;20237;-64
2022/11/03 13:12:40;;;;;;;8.27;3.10;;;;;;;23.25;36.34;97621.03;6242950;28;20305;-64
2022/11/03 13:15:42;;;;;;;4.07;2.77;;;;;;;21.98;38.86;97607.19;6242505;28;20455;-64
2022/11/03 13:18:44;;;;;;;12.90;3.50;;;;;;;20.82;42.12;97615.59;6246440;28;20314;-66
2022/11/03 13:21:46;;;;;;;9.07;3.60;;;;;;;21.02;42.15;97610.44;6246207;28;20288;-65
2022/11/03 13:24:49;;;;;;;5.20;3.57;;;;;;;18.92;47.14;97595.59;6229252;28;20230;-65
2022/11/03 13:27:54;;;;;;;5.97;3.77;;;;;;;17.37;51.83;97613.09;6229919;28;20231;-64
2022/11/03 13:30:56;;;;;;;5.73;3.73;;;;;;;16.39;55.19;97612.06;6234408;28;20305;-64
2022/11/03 13:33:58;;;;;;;6.27;3.43;;;;;;;16.17;56.44;97602.81;6223598;28;20317;-63
2022/11/03 13:37:00;;;;;;;6.63;3.50;;;;;;;16.10;56.55;97600.97;6229856;28;20326;-64
2022/11/03 13:40:03;;;;;;;9.33;3.53;;;;;;;15.95;57.16;97600.75;6233728;28;20744;-63
2022/11/03 13:43:05;;;;;;;6.33;3.30;;;;;;;15.88;57.57;97591.69;6243810;28;20225;-64
2022/11/03 13:46:08;;;;;;;6.97;3.13;;;;;;;15.85;57.87;97592.88;6244230;28;20703;-64
2022/11/03 13:49:10;;;;;;;7.13;3.47;;;;;;;15.70;58.83;97596.25;6243249;28;20301;-64
2022/11/03 13:52:32;;;;;;;4.90;3.60;;;;;;;15.56;59.45;97603.00;6241929;28;20720;-64
2022/11/03 13:55:34;;;;;;;6.40;3.27;;;;;;;15.47;59.96;97590.63;6246002;28;20284;-64
2022/11/03 13:58:39;;;;;;;6.27;3.83;;;;;;;15.33;60.73;97580.53;6248483;28;20663;-63
2022/11/03 14:02:01;;;;;;;6.83;3.73;;;;;;;15.23;61.39;97588.59;6244262;28;20240;-64
2022/11/03 14:05:24;;;;;;;6.57;3.50;;;;;;;15.12;62.08;97575.53;6244918;28;20243;-65
2022/11/03 14:08:26;;;;;;;6.73;3.37;;;;;;;15.05;62.36;97577.16;6238307;28;20965;-64
2022/11/03 14:14:49;;;;;;;6.83;3.80;;;;;;;14.81;63.37;97567.13;6240983;28;20724;-63
2022/11/03 14:17:51;;;;;;;7.30;4.20;;;;;;;14.74;63.91;97577.53;6239443;28;20373;-65
2022/11/03 14:20:53;;;;;;;8.97;4.50;;;;;;;14.71;64.02;97569.03;6246987;28;20234;-63
2022/11/03 14:23:55;;;;;;;4.90;3.87;;;;;;;14.69;64.27;97569.19;6226418;28;20225;-64
2022/11/03 14:26:57;;;;;;;6.60;4.03;;;;;;;14.71;64.29;97571.69;6243614;28;20273;-64